sensor_id;sensor_type;location;lat;lon;timestamp;pressure;altitude;pressure_sealevel;temperature;humidity
19259;BME280;9763;48.780;9.212;2023-11-19T00:00:43;98327.09;;;11.60;84.18
19259;BME280;9763;48.780;9.212;2023-11-19T00:04:15;98328.06;;;11.59;84.40
19259;BME280;9763;48.780;9.212;2023-11-19T00:07:40;98326.78;;;11.64;84.72
19259;BME280;9763;48.780;9.212;2023-11-19T00:11:07;98313.50;;;11.67;84.78
19259;BME280;9763;48.780;9.212;2023-11-19T00:14:30;98314.13;;;11.71;84.62
19259;BME280;9763;48.780;9.212;2023-11-19T00:17:54;98304.38;;;11.73;84.27
19259;BME280;9763;48.780;9.212;2023-11-19T00:21:22;98290.47;;;11.72;84.23
19259;BME280;9763;48.780;9.212;2023-11-19T00:24:46;98289.41;;;11.75;84.38
19259;BME280;9763;48.780;9.212;2023-11-19T00:28:11;98289.22;;;11.78;84.70
19259;BME280;9763;48.780;9.212;2023-11-19T00:31:35;98291.75;;;11.79;84.07
19259;BME280;9763;48.780;9.212;2023-11-19T00:34:58;98291.53;;;11.82;84.53
19259;BME280;9763;48.780;9.212;2023-11-19T00:38:22;98281.66;;;11.86;84.41
19259;BME280;9763;48.780;9.212;2023-11-19T00:41:46;98271.09;;;11.87;84.24
19259;BME280;9763;48.780;9.212;2023-11-19T00:45:11;98260.63;;;11.87;85.03
19259;BME280;9763;48.780;9.212;2023-11-19T00:48:35;98276.00;;;11.92;84.72
19259;BME280;9763;48.780;9.212;2023-11-19T00:51:59;98266.25;;;11.94;85.24
19259;BME280;9763;48.780;9.212;2023-11-19T00:55:24;98269.16;;;12.02;85.51
19259;BME280;9763;48.780;9.212;2023-11-19T00:58:47;98252.28;;;12.06;84.82
19259;BME280;9763;48.780;9.212;2023-11-19T01:02:12;98253.72;;;12.10;84.70
19259;BME280;9763;48.780;9.212;2023-11-19T01:05:36;98252.66;;;12.13;84.74
19259;BME280;9763;48.780;9.212;2023-11-19T01:09:02;98259.44;;;12.15;84.61
19259;BME280;9763;48.780;9.212;2023-11-19T01:12:27;98242.09;;;12.14;84.58
19259;BME280;9763;48.780;9.212;2023-11-19T01:15:51;98246.47;;;12.14;84.75
19259;BME280;9763;48.780;9.212;2023-11-19T01:19:16;98242.09;;;12.14;84.10
19259;BME280;9763;48.780;9.212;2023-11-19T01:22:40;98246.47;;;12.14;84.75
19259;BME280;9763;48.780;9.212;2023-11-19T01:26:05;98249.09;;;12.14;84.74
19259;BME280;9763;48.780;9.212;2023-11-19T01:29:33;98224.59;;;12.15;84.68
19259;BME280;9763;48.780;9.212;2023-11-19T01:32:56;98229.00;;;12.14;84.56
19259;BME280;9763;48.780;9.212;2023-11-19T01:36:22;98222.94;;;12.14;84.70
19259;BME280;9763;48.780;9.212;2023-11-19T01:39:46;98221.16;;;12.14;84.20
19259;BME280;9763;48.780;9.212;2023-11-19T01:43:34;98227.94;;;12.17;85.04
19259;BME280;9763;48.780;9.212;2023-11-19T01:46:58;98216.66;;;12.16;84.08
19259;BME280;9763;48.780;9.212;2023-11-19T01:50:23;98223.44;;;12.19;84.68
19259;BME280;9763;48.780;9.212;2023-11-19T01:53:50;98222.47;;;12.20;84.48
19259;BME280;9763;48.780;9.212;2023-11-19T01:57:14;98221.66;;;12.19;84.83
19259;BME280;9763;48.780;9.212;2023-11-19T02:00:38;98224.13;;;12.21;85.08
19259;BME280;9763;48.780;9.212;2023-11-19T02:04:03;98231.03;;;12.22;84.16
19259;BME280;9763;48.780;9.212;2023-11-19T02:07:28;98224.63;;;12.26;85.19
19259;BME280;9763;48.780;9.212;2023-11-19T02:10:54;98226.66;;;12.34;84.58
19259;BME280;9763;48.780;9.212;2023-11-19T02:14:24;98224.78;;;12.36;84.95
19259;BME280;9763;48.780;9.212;2023-11-19T02:17:49;98221.22;;;12.37;84.96
19259;BME280;9763;48.780;9.212;2023-11-19T02:21:13;98202.44;;;12.32;84.44
19259;BME280;9763;48.780;9.212;2023-11-19T02:24:38;98208.84;;;12.39;85.16
19259;BME280;9763;48.780;9.212;2023-11-19T02:28:04;98199.94;;;12.41;85.34
19259;BME280;9763;48.780;9.212;2023-11-19T02:31:28;98206.69;;;12.44;85.31
19259;BME280;9763;48.780;9.212;2023-11-19T02:34:53;98201.34;;;12.45;85.42
19259;BME280;9763;48.780;9.212;2023-11-19T02:38:29;98193.16;;;12.50;84.82
19259;BME280;9763;48.780;9.212;2023-11-19T02:41:53;98199.84;;;12.54;85.38
19259;BME280;9763;48.780;9.212;2023-11-19T02:45:19;98206.38;;;12.59;85.68
19259;BME280;9763;48.780;9.212;2023-11-19T02:48:44;98204.16;;;12.66;84.81
19259;BME280;9763;48.780;9.212;2023-11-19T02:52:08;98212.69;;;12.68;84.89
19259;BME280;9763;48.780;9.212;2023-11-19T02:55:33;98208.78;;;12.74;84.88
19259;BME280;9763;48.780;9.212;2023-11-19T02:59:01;98214.63;;;12.77;84.50
19259;BME280;9763;48.780;9.212;2023-11-19T03:02:31;98201.53;;;12.77;84.82
19259;BME280;9763;48.780;9.212;2023-11-19T03:06:07;98206.66;;;12.79;84.80
19259;BME280;9763;48.780;9.212;2023-11-19T03:09:31;98209.28;;;12.79;84.93
19259;BME280;9763;48.780;9.212;2023-11-19T03:12:56;98209.72;;;12.84;85.02
19259;BME280;9763;48.780;9.212;2023-11-19T03:16:21;98211.88;;;12.90;85.63
19259;BME280;9763;48.780;9.212;2023-11-19T03:19:47;98219.38;;;12.94;84.70
19259;BME280;9763;48.780;9.212;2023-11-19T03:23:10;98208.66;;;12.97;84.88
19259;BME280;9763;48.780;9.212;2023-11-19T03:26:34;98212.72;;;13.02;84.66
19259;BME280;9763;48.780;9.212;2023-11-19T03:29:59;98208.19;;;13.04;84.75
19259;BME280;9763;48.780;9.212;2023-11-19T03:33:23;98222.00;;;13.06;84.44
19259;BME280;9763;48.780;9.212;2023-11-19T03:36:51;98213.28;;;13.05;84.78
19259;BME280;9763;48.780;9.212;2023-11-19T03:40:15;98208.06;;;13.05;83.95
19259;BME280;9763;48.780;9.212;2023-11-19T03:43:39;98201.41;;;13.01;84.59
19259;BME280;9763;48.780;9.212;2023-11-19T03:47:03;98197.13;;;13.00;84.87
19259;BME280;9763;48.780;9.212;2023-11-19T03:50:27;98198.78;;;13.01;84.80
19259;BME280;9763;48.780;9.212;2023-11-19T03:53:52;98191.75;;;13.02;84.63
19259;BME280;9763;48.780;9.212;2023-11-19T03:57:17;98192.72;;;13.01;84.66
19259;BME280;9763;48.780;9.212;2023-11-19T04:00:41;98183.91;;;13.02;84.86
19259;BME280;9763;48.780;9.212;2023-11-19T04:04:05;98174.13;;;13.04;85.38
19259;BME280;9763;48.780;9.212;2023-11-19T04:07:29;98159.94;;;13.06;84.82
19259;BME280;9763;48.780;9.212;2023-11-19T04:10:55;98155.41;;;13.08;85.00
19259;BME280;9763;48.780;9.212;2023-11-19T04:14:18;98159.09;;;13.06;85.09
19259;BME280;9763;48.780;9.212;2023-11-19T04:17:42;98155.53;;;13.07;85.39
19259;BME280;9763;48.780;9.212;2023-11-19T04:21:06;98149.34;;;13.08;85.47
19259;BME280;9763;48.780;9.212;2023-11-19T04:24:30;98166.72;;;13.09;86.19
19259;BME280;9763;48.780;9.212;2023-11-19T04:27:55;98164.13;;;13.09;86.05
19259;BME280;9763;48.780;9.212;2023-11-19T04:31:18;98160.31;;;13.13;86.53
19259;BME280;9763;48.780;9.212;2023-11-19T04:34:42;98151.50;;;13.14;86.94
19259;BME280;9763;48.780;9.212;2023-11-19T04:38:06;98155.53;;;13.18;87.25
19259;BME280;9763;48.780;9.212;2023-11-19T04:41:30;98157.09;;;13.20;87.34
19259;BME280;9763;48.780;9.212;2023-11-19T04:44:55;98163.88;;;13.23;87.37
19259;BME280;9763;48.780;9.212;2023-11-19T04:48:19;98157.56;;;13.25;87.34
19259;BME280;9763;48.780;9.212;2023-11-19T04:51:44;98161.59;;;13.29;87.11
19259;BME280;9763;48.780;9.212;2023-11-19T04:55:09;98158.50;;;13.36;87.47
19259;BME280;9763;48.780;9.212;2023-11-19T04:58:35;98160.75;;;13.40;87.66
19259;BME280;9763;48.780;9.212;2023-11-19T05:02:00;98153.47;;;13.44;87.76
19259;BME280;9763;48.780;9.212;2023-11-19T05:05:24;98152.28;;;13.48;87.55
19259;BME280;9763;48.780;9.212;2023-11-19T05:08:49;98162.41;;;13.52;87.92
19259;BME280;9763;48.780;9.212;2023-11-19T05:12:12;98166.28;;;13.58;87.74
19259;BME280;9763;48.780;9.212;2023-11-19T05:15:36;98165.09;;;13.62;87.36
19259;BME280;9763;48.780;9.212;2023-11-19T05:19:02;98159.56;;;13.65;87.68
19259;BME280;9763;48.780;9.212;2023-11-19T05:22:26;98151.22;;;13.71;87.57
19259;BME280;9763;48.780;9.212;2023-11-19T05:25:49;98160.63;;;13.74;87.47
19259;BME280;9763;48.780;9.212;2023-11-19T05:29:13;98168.25;;;13.77;87.53
19259;BME280;9763;48.780;9.212;2023-11-19T05:32:36;98168.81;;;13.80;86.68
19259;BME280;9763;48.780;9.212;2023-11-19T05:36:02;98171.34;;;13.82;87.03
19259;BME280;9763;48.780;9.212;2023-11-19T05:39:27;98168.72;;;13.82;87.24
19259;BME280;9763;48.780;9.212;2023-11-19T05:42:51;98172.16;;;13.82;86.90
19259;BME280;9763;48.780;9.212;2023-11-19T05:46:15;98170.13;;;13.86;86.71
19259;BME280;9763;48.780;9.212;2023-11-19T05:49:42;98168.06;;;13.89;87.18
19259;BME280;9763;48.780;9.212;2023-11-19T05:53:07;98145.44;;;13.88;87.55
19259;BME280;9763;48.780;9.212;2023-11-19T05:56:33;98154.56;;;13.94;87.08
19259;BME280;9763;48.780;9.212;2023-11-19T05:59:57;98157.91;;;13.96;87.06
19259;BME280;9763;48.780;9.212;2023-11-19T06:03:22;98140.81;;;14.01;87.64
19259;BME280;9763;48.780;9.212;2023-11-19T06:06:45;98143.06;;;14.06;87.29
19259;BME280;9763;48.780;9.212;2023-11-19T06:10:11;98147.34;;;14.07;87.25
19259;BME280;9763;48.780;9.212;2023-11-19T06:13:36;98148.06;;;14.09;87.44
19259;BME280;9763;48.780;9.212;2023-11-19T06:17:00;98159.28;;;14.11;87.81
19259;BME280;9763;48.780;9.212;2023-11-19T06:20:24;98155.69;;;14.12;87.75
19259;BME280;9763;48.780;9.212;2023-11-19T06:23:50;98163.88;;;14.19;88.07
19259;BME280;9763;48.780;9.212;2023-11-19T06:27:15;98172.31;;;14.22;87.16
19259;BME280;9763;48.780;9.212;2023-11-19T06:30:39;98180.06;;;14.24;86.99
19259;BME280;9763;48.780;9.212;2023-11-19T06:34:04;98180.91;;;14.24;87.04
19259;BME280;9763;48.780;9.212;2023-11-19T06:37:28;98180.75;;;14.26;86.74
19259;BME280;9763;48.780;9.212;2023-11-19T06:40:52;98183.97;;;14.29;87.15
19259;BME280;9763;48.780;9.212;2023-11-19T06:44:17;98189.94;;;14.31;86.85
19259;BME280;9763;48.780;9.212;2023-11-19T06:47:41;98190.75;;;14.32;87.35
19259;BME280;9763;48.780;9.212;2023-11-19T06:51:05;98188.97;;;14.32;86.84
19259;BME280;9763;48.780;9.212;2023-11-19T06:54:29;98189.56;;;14.36;87.03
19259;BME280;9763;48.780;9.212;2023-11-19T06:57:53;98196.44;;;14.37;86.95
19259;BME280;9763;48.780;9.212;2023-11-19T07:01:18;98201.47;;;14.40;86.80
19259;BME280;9763;48.780;9.212;2023-11-19T07:04:42;98196.94;;;14.42;87.00
19259;BME280;9763;48.780;9.212;2023-11-19T07:08:06;98193.59;;;14.40;87.01
19259;BME280;9763;48.780;9.212;2023-11-19T07:11:30;98193.69;;;14.38;87.48
19259;BME280;9763;48.780;9.212;2023-11-19T07:14:54;98184.44;;;14.34;86.75
19259;BME280;9763;48.780;9.212;2023-11-19T07:18:20;98199.06;;;14.37;87.44
19259;BME280;9763;48.780;9.212;2023-11-19T07:21:44;98191.81;;;14.40;86.88
19259;BME280;9763;48.780;9.212;2023-11-19T07:25:08;98186.19;;;14.45;87.35
19259;BME280;9763;48.780;9.212;2023-11-19T07:28:32;98193.81;;;14.48;86.88
19259;BME280;9763;48.780;9.212;2023-11-19T07:31:56;98165.44;;;14.42;86.87
19259;BME280;9763;48.780;9.212;2023-11-19T07:35:21;98198.53;;;14.54;87.24
19259;BME280;9763;48.780;9.212;2023-11-19T07:38:46;98220.38;;;14.55;87.15
19259;BME280;9763;48.780;9.212;2023-11-19T07:42:09;98230.50;;;14.59;86.51
19259;BME280;9763;48.780;9.212;2023-11-19T07:45:33;98221.78;;;14.59;87.02
19259;BME280;9763;48.780;9.212;2023-11-19T07:48:57;98222.50;;;14.61;86.76
19259;BME280;9763;48.780;9.212;2023-11-19T07:52:23;98219.88;;;14.61;87.30
19259;BME280;9763;48.780;9.212;2023-11-19T07:55:46;98225.81;;;14.63;86.78
19259;BME280;9763;48.780;9.212;2023-11-19T07:59:10;98236.19;;;14.64;87.13
19259;BME280;9763;48.780;9.212;2023-11-19T08:02:34;98237.84;;;14.65;86.67
19259;BME280;9763;48.780;9.212;2023-11-19T08:05:58;98219.59;;;14.64;87.48
19259;BME280;9763;48.780;9.212;2023-11-19T08:09:23;98218.13;;;14.71;87.03
19259;BME280;9763;48.780;9.212;2023-11-19T08:12:46;98219.78;;;14.72;87.42
19259;BME280;9763;48.780;9.212;2023-11-19T08:16:10;98216.50;;;14.80;87.35
19259;BME280;9763;48.780;9.212;2023-11-19T08:19:34;98212.53;;;14.85;88.19
19259;BME280;9763;48.780;9.212;2023-11-19T08:22:58;98213.78;;;14.91;87.78
19259;BME280;9763;48.780;9.212;2023-11-19T08:26:23;98206.72;;;14.91;87.87
19259;BME280;9763;48.780;9.212;2023-11-19T08:29:46;98215.16;;;14.85;87.92
19259;BME280;9763;48.780;9.212;2023-11-19T08:33:10;98227.78;;;15.01;87.61
19259;BME280;9763;48.780;9.212;2023-11-19T08:36:34;98221.59;;;15.11;88.51
19259;BME280;9763;48.780;9.212;2023-11-19T08:39:57;98224.75;;;15.36;89.26
19259;BME280;9763;48.780;9.212;2023-11-19T08:43:22;98234.03;;;15.40;88.26
19259;BME280;9763;48.780;9.212;2023-11-19T08:46:47;98243.94;;;15.57;89.46
19259;BME280;9763;48.780;9.212;2023-11-19T08:50:12;98234.69;;;15.72;89.14
19259;BME280;9763;48.780;9.212;2023-11-19T08:53:35;98232.06;;;15.82;88.19
19259;BME280;9763;48.780;9.212;2023-11-19T08:56:59;98223.19;;;15.83;87.92
19259;BME280;9763;48.780;9.212;2023-11-19T09:00:24;98233.88;;;15.91;88.40
19259;BME280;9763;48.780;9.212;2023-11-19T09:03:48;98236.13;;;16.05;87.91
19259;BME280;9763;48.780;9.212;2023-11-19T09:07:12;98226.28;;;16.17;87.27
19259;BME280;9763;48.780;9.212;2023-11-19T09:10:35;98230.44;;;16.29;87.72
19259;BME280;9763;48.780;9.212;2023-11-19T09:13:59;98236.22;;;16.42;87.17
19259;BME280;9763;48.780;9.212;2023-11-19T09:17:24;98234.97;;;16.46;87.24
19259;BME280;9763;48.780;9.212;2023-11-19T09:20:48;98241.47;;;16.62;87.25
19259;BME280;9763;48.780;9.212;2023-11-19T09:24:12;98245.09;;;16.70;85.91
19259;BME280;9763;48.780;9.212;2023-11-19T09:27:38;98256.59;;;16.69;86.14
19259;BME280;9763;48.780;9.212;2023-11-19T09:31:01;98258.69;;;16.75;86.49
19259;BME280;9763;48.780;9.212;2023-11-19T09:34:28;98237.06;;;16.62;85.56
19259;BME280;9763;48.780;9.212;2023-11-19T09:37:52;98264.03;;;16.93;85.89
19259;BME280;9763;48.780;9.212;2023-11-19T09:41:17;98249.81;;;17.13;86.99
19259;BME280;9763;48.780;9.212;2023-11-19T09:44:43;98259.41;;;17.42;85.87
19259;BME280;9763;48.780;9.212;2023-11-19T09:48:08;98257.94;;;17.57;85.20
19259;BME280;9763;48.780;9.212;2023-11-19T09:51:33;98261.19;;;17.51;84.60
19259;BME280;9763;48.780;9.212;2023-11-19T09:54:57;98267.31;;;17.42;85.07
19259;BME280;9763;48.780;9.212;2023-11-19T09:58:22;98250.56;;;17.33;84.78
19259;BME280;9763;48.780;9.212;2023-11-19T10:01:47;98258.63;;;17.32;84.82
19259;BME280;9763;48.780;9.212;2023-11-19T10:05:12;98259.03;;;17.37;85.44
19259;BME280;9763;48.780;9.212;2023-11-19T10:08:39;98255.44;;;17.55;85.70
19259;BME280;9763;48.780;9.212;2023-11-19T10:12:04;98237.88;;;17.74;85.68
19259;BME280;9763;48.780;9.212;2023-11-19T10:15:35;98236.28;;;17.81;85.67
19259;BME280;9763;48.780;9.212;2023-11-19T10:19:00;98236.47;;;17.97;85.88
19259;BME280;9763;48.780;9.212;2023-11-19T10:22:24;98233.38;;;18.19;85.64
19259;BME280;9763;48.780;9.212;2023-11-19T10:25:53;98236.81;;;18.55;85.96
19259;BME280;9763;48.780;9.212;2023-11-19T10:29:17;98234.31;;;18.72;85.06
19259;BME280;9763;48.780;9.212;2023-11-19T10:32:40;98236.84;;;18.81;84.48
19259;BME280;9763;48.780;9.212;2023-11-19T10:36:05;98240.50;;;18.88;84.19
19259;BME280;9763;48.780;9.212;2023-11-19T10:39:52;98243.16;;;18.88;82.96
19259;BME280;9763;48.780;9.212;2023-11-19T10:43:19;98247.63;;;18.88;82.72
19259;BME280;9763;48.780;9.212;2023-11-19T10:46:44;98232.09;;;19.53;86.85
19259;BME280;9763;48.780;9.212;2023-11-19T10:50:09;98224.59;;;19.90;87.30
19259;BME280;9763;48.780;9.212;2023-11-19T10:53:36;98214.66;;;20.00;85.27
19259;BME280;9763;48.780;9.212;2023-11-19T10:57:02;98227.75;;;20.02;84.03
19259;BME280;9763;48.780;9.212;2023-11-19T11:00:29;98219.13;;;19.92;82.22
19259;BME280;9763;48.780;9.212;2023-11-19T11:03:59;98222.72;;;19.74;80.92
19259;BME280;9763;48.780;9.212;2023-11-19T11:07:24;98206.66;;;19.68;81.20
19259;BME280;9763;48.780;9.212;2023-11-19T11:11:03;98205.78;;;19.59;81.23
19259;BME280;9763;48.780;9.212;2023-11-19T11:14:30;98222.44;;;19.43;80.18
19259;BME280;9763;48.780;9.212;2023-11-19T11:18:01;98215.88;;;19.22;80.28
19259;BME280;9763;48.780;9.212;2023-11-19T11:21:26;98211.16;;;18.99;80.03
19259;BME280;9763;48.780;9.212;2023-11-19T11:25:11;98192.34;;;18.77;80.28
19259;BME280;9763;48.780;9.212;2023-11-19T11:28:48;98204.94;;;18.57;79.76
19259;BME280;9763;48.780;9.212;2023-11-19T11:32:30;98188.88;;;18.32;80.23
19259;BME280;9763;48.780;9.212;2023-11-19T11:36:13;98207.31;;;18.24;81.17
19259;BME280;9763;48.780;9.212;2023-11-19T11:39:40;98206.72;;;18.13;81.33
19259;BME280;9763;48.780;9.212;2023-11-19T11:43:04;98207.53;;;18.13;81.78
19259;BME280;9763;48.780;9.212;2023-11-19T11:46:56;98202.97;;;17.97;81.70
19259;BME280;9763;48.780;9.212;2023-11-19T11:50:21;98202.81;;;17.81;82.02
19259;BME280;9763;48.780;9.212;2023-11-19T11:53:47;98206.41;;;17.80;83.54
19259;BME280;9763;48.780;9.212;2023-11-19T11:57:13;98192.56;;;17.96;83.85
19259;BME280;9763;48.780;9.212;2023-11-19T12:00:40;98192.47;;;18.06;84.23
19259;BME280;9763;48.780;9.212;2023-11-19T12:04:06;98186.50;;;18.21;84.25
19259;BME280;9763;48.780;9.212;2023-11-19T12:07:31;98184.75;;;18.30;84.57
19259;BME280;9763;48.780;9.212;2023-11-19T12:10:58;98186.44;;;18.39;84.35
19259;BME280;9763;48.780;9.212;2023-11-19T12:15:04;98176.31;;;18.52;84.06
19259;BME280;9763;48.780;9.212;2023-11-19T12:18:30;98168.66;;;18.67;84.14
19259;BME280;9763;48.780;9.212;2023-11-19T12:21:54;98172.53;;;18.81;84.08
19259;BME280;9763;48.780;9.212;2023-11-19T12:25:18;98164.91;;;18.78;83.32
19259;BME280;9763;48.780;9.212;2023-11-19T12:28:57;98164.94;;;18.86;83.97
19259;BME280;9763;48.780;9.212;2023-11-19T12:32:22;98147.13;;;18.88;83.51
19259;BME280;9763;48.780;9.212;2023-11-19T12:35:47;98145.44;;;18.79;82.82
19259;BME280;9763;48.780;9.212;2023-11-19T12:39:11;98138.75;;;18.66;83.03
19259;BME280;9763;48.780;9.212;2023-11-19T12:42:38;98123.13;;;18.55;82.79
19259;BME280;9763;48.780;9.212;2023-11-19T12:46:16;98128.69;;;18.44;81.67
19259;BME280;9763;48.780;9.212;2023-11-19T12:49:41;98149.56;;;18.29;82.03
19259;BME280;9763;48.780;9.212;2023-11-19T12:53:05;98125.34;;;18.16;82.71
19259;BME280;9763;48.780;9.212;2023-11-19T12:56:28;98133.38;;;18.07;83.38
19259;BME280;9763;48.780;9.212;2023-11-19T12:59:56;98120.47;;;18.04;83.43
19259;BME280;9763;48.780;9.212;2023-11-19T13:03:31;98132.78;;;17.95;83.73
19259;BME280;9763;48.780;9.212;2023-11-19T13:06:56;98111.44;;;17.88;82.65
19259;BME280;9763;48.780;9.212;2023-11-19T13:10:23;98120.50;;;17.86;84.12
19259;BME280;9763;48.780;9.212;2023-11-19T13:13:57;98122.91;;;17.79;83.67
19259;BME280;9763;48.780;9.212;2023-11-19T13:17:21;98127.66;;;17.76;84.34
19259;BME280;9763;48.780;9.212;2023-11-19T13:20:47;98116.75;;;17.71;84.25
19259;BME280;9763;48.780;9.212;2023-11-19T13:24:11;98120.50;;;17.68;84.48
19259;BME280;9763;48.780;9.212;2023-11-19T13:27:35;98111.91;;;17.66;82.75
19259;BME280;9763;48.780;9.212;2023-11-19T13:30:59;98111.81;;;17.58;82.91
19259;BME280;9763;48.780;9.212;2023-11-19T13:34:23;98105.16;;;17.54;83.08
19259;BME280;9763;48.780;9.212;2023-11-19T13:37:49;98105.31;;;17.52;83.56
19259;BME280;9763;48.780;9.212;2023-11-19T13:41:14;98100.34;;;17.49;84.02
19259;BME280;9763;48.780;9.212;2023-11-19T13:44:38;98104.94;;;17.47;84.12
19259;BME280;9763;48.780;9.212;2023-11-19T13:48:01;98105.09;;;17.46;85.01
19259;BME280;9763;48.780;9.212;2023-11-19T13:51:25;98097.03;;;17.47;85.08
19259;BME280;9763;48.780;9.212;2023-11-19T13:54:50;98109.53;;;17.45;84.93
19259;BME280;9763;48.780;9.212;2023-11-19T13:58:15;98105.69;;;17.40;84.25
19259;BME280;9763;48.780;9.212;2023-11-19T14:01:39;98103.66;;;17.34;84.42
19259;BME280;9763;48.780;9.212;2023-11-19T14:05:03;98106.88;;;17.27;84.66
19259;BME280;9763;48.780;9.212;2023-11-19T14:08:28;98107.63;;;17.20;83.96
19259;BME280;9763;48.780;9.212;2023-11-19T14:11:53;98105.75;;;17.12;84.22
19259;BME280;9763;48.780;9.212;2023-11-19T14:15:17;98101.19;;;17.05;84.67
19259;BME280;9763;48.780;9.212;2023-11-19T14:18:40;98113.88;;;17.01;84.80
19259;BME280;9763;48.780;9.212;2023-11-19T14:22:04;98114.28;;;16.97;84.31
19259;BME280;9763;48.780;9.212;2023-11-19T14:25:28;98108.63;;;16.91;84.05
19259;BME280;9763;48.780;9.212;2023-11-19T14:28:53;98115.88;;;16.89;84.78
19259;BME280;9763;48.780;9.212;2023-11-19T14:32:17;98108.25;;;16.86;84.78
19259;BME280;9763;48.780;9.212;2023-11-19T14:35:41;98104.09;;;16.84;84.63
19259;BME280;9763;48.780;9.212;2023-11-19T14:39:05;98097.63;;;16.78;84.50
19259;BME280;9763;48.780;9.212;2023-11-19T14:42:30;98093.75;;;16.73;84.71
19259;BME280;9763;48.780;9.212;2023-11-19T14:45:55;98088.06;;;16.68;84.60
19259;BME280;9763;48.780;9.212;2023-11-19T14:49:19;98097.41;;;16.62;84.75
19259;BME280;9763;48.780;9.212;2023-11-19T14:52:43;98088.91;;;16.58;84.79
19259;BME280;9763;48.780;9.212;2023-11-19T14:56:10;98093.94;;;16.52;84.89
19259;BME280;9763;48.780;9.212;2023-11-19T14:59:35;98096.44;;;16.53;84.52
19259;BME280;9763;48.780;9.212;2023-11-19T15:03:00;98092.56;;;16.48;85.15
19259;BME280;9763;48.780;9.212;2023-11-19T15:06:24;98092.00;;;16.44;84.77
19259;BME280;9763;48.780;9.212;2023-11-19T15:09:49;98088.16;;;16.39;85.19
19259;BME280;9763;48.780;9.212;2023-11-19T15:13:13;98085.56;;;16.29;84.73
19259;BME280;9763;48.780;9.212;2023-11-19T15:16:37;98108.28;;;16.30;84.12
19259;BME280;9763;48.780;9.212;2023-11-19T15:20:04;98110.53;;;16.25;84.51
19259;BME280;9763;48.780;9.212;2023-11-19T15:23:28;98113.88;;;16.17;84.79
19259;BME280;9763;48.780;9.212;2023-11-19T15:26:52;98107.22;;;16.13;84.69
19259;BME280;9763;48.780;9.212;2023-11-19T15:30:35;98116.50;;;16.08;84.64
19259;BME280;9763;48.780;9.212;2023-11-19T15:34:00;98110.03;;;16.02;84.51
19259;BME280;9763;48.780;9.212;2023-11-19T15:37:26;98115.97;;;15.95;84.25
19259;BME280;9763;48.780;9.212;2023-11-19T15:40:50;98101.72;;;15.88;84.46
19259;BME280;9763;48.780;9.212;2023-11-19T15:44:15;98117.91;;;15.83;83.71
19259;BME280;9763;48.780;9.212;2023-11-19T15:47:38;98103.13;;;15.72;84.49
19259;BME280;9763;48.780;9.212;2023-11-19T15:51:03;98109.06;;;15.74;84.25
19259;BME280;9763;48.780;9.212;2023-11-19T15:54:28;98108.50;;;15.71;84.73
19259;BME280;9763;48.780;9.212;2023-11-19T15:57:52;98105.75;;;15.63;84.29
19259;BME280;9763;48.780;9.212;2023-11-19T16:01:15;98111.28;;;15.60;83.40
19259;BME280;9763;48.780;9.212;2023-11-19T16:04:40;98099.63;;;15.53;84.19
19259;BME280;9763;48.780;9.212;2023-11-19T16:08:04;98105.63;;;15.55;84.17
19259;BME280;9763;48.780;9.212;2023-11-19T16:11:31;98106.81;;;15.50;84.55
19259;BME280;9763;48.780;9.212;2023-11-19T16:15:12;98050.03;;;15.09;85.24
19259;BME280;9763;48.780;9.212;2023-11-19T16:18:37;98122.34;;;15.44;84.17
19259;BME280;9763;48.780;9.212;2023-11-19T16:22:00;98138.38;;;15.41;84.14
19259;BME280;9763;48.780;9.212;2023-11-19T16:25:32;98135.06;;;15.39;84.87
19259;BME280;9763;48.780;9.212;2023-11-19T16:28:59;98135.31;;;15.36;84.33
19259;BME280;9763;48.780;9.212;2023-11-19T16:32:24;98144.59;;;15.30;84.73
19259;BME280;9763;48.780;9.212;2023-11-19T16:35:48;98134.09;;;15.30;84.76
19259;BME280;9763;48.780;9.212;2023-11-19T16:39:12;98132.69;;;15.26;84.91
19259;BME280;9763;48.780;9.212;2023-11-19T16:42:38;98133.50;;;15.27;85.23
19259;BME280;9763;48.780;9.212;2023-11-19T16:46:04;98138.78;;;15.27;84.77
19259;BME280;9763;48.780;9.212;2023-11-19T16:49:32;98137.09;;;15.26;84.39
19259;BME280;9763;48.780;9.212;2023-11-19T16:52:55;98140.97;;;15.22;84.74
19259;BME280;9763;48.780;9.212;2023-11-19T16:56:19;98153.16;;;15.23;84.14
19259;BME280;9763;48.780;9.212;2023-11-19T16:59:44;98153.44;;;15.20;84.61
19259;BME280;9763;48.780;9.212;2023-11-19T17:03:10;98154.66;;;15.16;84.34
19259;BME280;9763;48.780;9.212;2023-11-19T17:06:34;98153.13;;;15.13;84.16
19259;BME280;9763;48.780;9.212;2023-11-19T17:09:57;98142.59;;;15.03;83.63
19259;BME280;9763;48.780;9.212;2023-11-19T17:13:21;98152.28;;;15.03;84.29
19259;BME280;9763;48.780;9.212;2023-11-19T17:16:45;98166.25;;;15.03;84.11
19259;BME280;9763;48.780;9.212;2023-11-19T17:20:11;98167.34;;;15.01;83.69
19259;BME280;9763;48.780;9.212;2023-11-19T17:23:35;98176.19;;;15.00;83.82
19259;BME280;9763;48.780;9.212;2023-11-19T17:26:59;98178.13;;;14.98;83.90
19259;BME280;9763;48.780;9.212;2023-11-19T17:30:23;98180.19;;;14.94;84.04
19259;BME280;9763;48.780;9.212;2023-11-19T17:33:47;98179.75;;;14.89;83.80
19259;BME280;9763;48.780;9.212;2023-11-19T17:37:11;98167.16;;;14.83;83.47
19259;BME280;9763;48.780;9.212;2023-11-19T17:40:36;98148.31;;;14.78;83.89
19259;BME280;9763;48.780;9.212;2023-11-19T17:43:59;98152.75;;;14.77;84.36
19259;BME280;9763;48.780;9.212;2023-11-19T17:47:23;98150.09;;;14.77;84.03
19259;BME280;9763;48.780;9.212;2023-11-19T17:50:47;98144.69;;;14.69;84.22
19259;BME280;9763;48.780;9.212;2023-11-19T17:54:14;98143.16;;;14.67;84.77
19259;BME280;9763;48.780;9.212;2023-11-19T17:57:40;98161.84;;;14.73;84.09
19259;BME280;9763;48.780;9.212;2023-11-19T18:01:04;98153.28;;;14.71;84.45
19259;BME280;9763;48.780;9.212;2023-11-19T18:04:28;98157.69;;;14.71;84.07
19259;BME280;9763;48.780;9.212;2023-11-19T18:07:54;98155.91;;;14.71;84.68
19259;BME280;9763;48.780;9.212;2023-11-19T18:11:20;98130.16;;;14.65;84.46
19259;BME280;9763;48.780;9.212;2023-11-19T18:14:44;98148.03;;;14.71;84.51
19259;BME280;9763;48.780;9.212;2023-11-19T18:18:11;98110.16;;;14.44;84.95
19259;BME280;9763;48.780;9.212;2023-11-19T18:21:36;98163.78;;;14.71;84.45